createdAt,value
2023-03-07T00:00:54.342Z,81.75
2023-03-07T00:03:58.004Z,81.36
2023-03-07T00:07:00.751Z,81.15
2023-03-07T00:10:03.530Z,81.39
2023-03-07T00:13:06.466Z,82.37
2023-03-07T00:16:13.278Z,82.23
2023-03-07T00:19:16.070Z,83.61
2023-03-07T00:22:18.738Z,82.69
2023-03-07T00:25:21.576Z,83.49
2023-03-07T00:28:24.188Z,84.27
2023-03-07T00:31:27.079Z,84.69
2023-03-07T00:34:29.659Z,83.70
2023-03-07T00:37:32.324Z,83.65
2023-03-07T00:40:35.095Z,83.13
2023-03-07T00:43:37.926Z,82.43
2023-03-07T00:46:40.489Z,82.85
2023-03-07T00:49:44.592Z,82.09
2023-03-07T00:52:47.612Z,82.34
2023-03-07T00:56:05.833Z,82.56
2023-03-07T00:59:11.619Z,82.51
2023-03-07T01:02:14.328Z,81.87
2023-03-07T01:05:17.549Z,83.00
2023-03-07T01:08:21.180Z,84.17
2023-03-07T01:11:24.072Z,83.15
2023-03-07T01:14:26.831Z,82.75
2023-03-07T01:17:29.615Z,83.35
2023-03-07T01:20:33.777Z,83.79
2023-03-07T01:23:36.496Z,83.41
2023-03-07T01:26:39.215Z,83.72
2023-03-07T01:29:41.871Z,82.87
2023-03-07T01:32:44.801Z,82.86
2023-03-07T01:35:47.567Z,84.14
2023-03-07T01:38:50.895Z,84.87
2023-03-07T01:41:53.747Z,84.10
2023-03-07T01:45:35.852Z,84.31
2023-03-07T01:48:40.038Z,83.62
2023-03-07T01:51:46.659Z,84.97
2023-03-07T01:54:52.639Z,83.69
2023-03-07T01:58:00.633Z,82.69
2023-03-07T02:01:03.345Z,83.34
2023-03-07T02:04:17.420Z,82.49
2023-03-07T02:07:22.403Z,82.09
2023-03-07T02:10:26.017Z,82.07
2023-03-07T02:13:29.146Z,82.81
2023-03-07T02:16:31.839Z,82.98
2023-03-07T02:19:38.009Z,83.30
2023-03-07T02:22:41.603Z,84.17
2023-03-07T02:25:47.090Z,84.42
2023-03-07T02:28:49.925Z,84.00
2023-03-07T02:31:52.563Z,83.75
2023-03-07T02:34:55.235Z,84.14
2023-03-07T02:38:03.437Z,83.87
2023-03-07T02:41:06.461Z,83.99
2023-03-07T02:44:11.511Z,84.01
2023-03-07T02:47:14.707Z,83.99
2023-03-07T02:50:17.772Z,84.05
2023-03-07T02:53:24.356Z,83.18
2023-03-07T02:56:27.035Z,83.47
2023-03-07T02:59:29.618Z,83.42
2023-03-07T03:02:32.348Z,83.73
2023-03-07T03:05:34.925Z,83.91
2023-03-07T03:08:37.644Z,85.08
2023-03-07T03:11:40.300Z,83.95
2023-03-07T03:14:42.922Z,83.16
2023-03-07T03:17:47.919Z,83.21
2023-03-07T03:20:50.559Z,83.84
2023-03-07T03:23:53.267Z,83.76
2023-03-07T03:26:58.187Z,83.82
2023-03-07T03:30:02.384Z,83.50
2023-03-07T03:33:06.200Z,83.27
2023-03-07T03:36:13.777Z,83.63
2023-03-07T03:39:17.178Z,82.71
2023-03-07T03:42:24.208Z,83.58
2023-03-07T03:45:27.129Z,84.06
2023-03-07T03:48:29.928Z,84.76
2023-03-07T03:51:32.914Z,85.65
2023-03-07T03:54:36.033Z,86.06
2023-03-07T03:57:39.046Z,84.96
2023-03-07T04:00:42.038Z,84.21
2023-03-07T04:03:47.614Z,84.06
2023-03-07T04:06:51.242Z,84.50
2023-03-07T04:09:53.843Z,83.85
2023-03-07T04:12:56.848Z,84.83
2023-03-07T04:15:59.498Z,84.88
2023-03-07T04:19:02.140Z,84.17
2023-03-07T04:22:04.956Z,84.60
2023-03-07T04:25:08.081Z,85.16
2023-03-07T04:28:10.622Z,85.62
2023-03-07T04:31:19.485Z,85.55
2023-03-07T04:34:22.149Z,86.52
2023-03-07T04:37:24.981Z,87.15
2023-03-07T04:40:27.559Z,85.68
2023-03-07T04:43:30.153Z,85.66
2023-03-07T04:46:35.511Z,87.01
2023-03-07T04:49:38.410Z,87.59
2023-03-07T04:52:42.406Z,87.87
2023-03-07T04:55:45.422Z,86.70
2023-03-07T04:58:47.956Z,86.36
2023-03-07T05:01:52.771Z,86.79
2023-03-07T05:04:55.473Z,88.24
2023-03-07T05:07:58.729Z,87.70
2023-03-07T05:11:01.887Z,88.61
2023-03-07T05:14:05.365Z,89.77
2023-03-07T05:17:09.750Z,89.52
2023-03-07T05:20:13.281Z,89.07
2023-03-07T05:23:18.090Z,87.64
2023-03-07T05:26:23.312Z,87.85
2023-03-07T05:29:26.459Z,88.42
2023-03-07T05:32:29.121Z,87.75
2023-03-07T05:35:32.842Z,87.27
2023-03-07T05:38:36.926Z,87.48
2023-03-07T05:41:39.546Z,88.06
2023-03-07T05:44:43.102Z,89.17
2023-03-07T05:47:45.979Z,88.75
2023-03-07T05:50:49.387Z,89.38
2023-03-07T05:53:53.784Z,88.82
2023-03-07T05:56:57.439Z,88.26
2023-03-07T06:00:00.280Z,89.09
2023-03-07T06:03:03.787Z,88.61
2023-03-07T06:06:07.991Z,88.81
2023-03-07T06:09:10.904Z,91.96
2023-03-07T06:12:14.942Z,92.52
2023-03-07T06:15:17.943Z,90.91
2023-03-07T06:18:22.559Z,89.34
2023-03-07T06:21:25.616Z,87.90
2023-03-07T06:24:28.423Z,87.58
2023-03-07T06:27:36.281Z,88.29
2023-03-07T06:30:39.674Z,87.86
2023-03-07T06:33:43.115Z,88.32
2023-03-07T06:36:48.764Z,87.43
2023-03-07T06:39:54.069Z,87.99
2023-03-07T06:42:56.812Z,87.71
2023-03-07T06:45:59.756Z,87.70
2023-03-07T06:49:08.459Z,87.60
2023-03-07T06:52:11.580Z,88.36
2023-03-07T06:55:14.316Z,87.92
2023-03-07T06:58:17.517Z,87.76
2023-03-07T07:01:23.077Z,87.69
2023-03-07T07:04:28.248Z,88.26
2023-03-07T07:07:31.149Z,87.59
2023-03-07T07:10:34.930Z,88.87
2023-03-07T07:13:37.666Z,85.96
2023-03-07T07:16:41.653Z,85.44
2023-03-07T07:19:44.978Z,87.10
2023-03-07T07:22:47.953Z,88.25
2023-03-07T07:25:50.521Z,89.52
2023-03-07T07:28:53.578Z,88.48
2023-03-07T07:31:56.519Z,86.75
2023-03-07T07:34:59.185Z,83.11
2023-03-07T07:38:02.180Z,84.56
2023-03-07T07:41:05.196Z,85.60
2023-03-07T07:44:08.877Z,86.81
2023-03-07T07:47:18.227Z,88.11
2023-03-07T07:50:21.980Z,86.35
2023-03-07T07:53:24.997Z,88.07
2023-03-07T07:56:27.767Z,87.91
2023-03-07T07:59:32.006Z,89.15
2023-03-07T08:02:36.021Z,88.16
2023-03-07T08:05:44.236Z,90.42
2023-03-07T08:08:48.314Z,87.60
2023-03-07T08:11:51.150Z,87.54
2023-03-07T08:14:53.926Z,86.40
2023-03-07T08:17:56.761Z,83.30
2023-03-07T08:21:00.016Z,85.39
2023-03-07T08:24:03.494Z,85.40
2023-03-07T08:27:06.352Z,82.49
2023-03-07T08:30:09.694Z,82.93
2023-03-07T08:33:12.269Z,81.82
2023-03-07T08:36:15.124Z,83.00
2023-03-07T08:39:17.702Z,84.54
2023-03-07T08:42:20.638Z,82.72
2023-03-07T08:45:24.226Z,82.94
2023-03-07T08:48:27.300Z,83.08
2023-03-07T08:51:29.972Z,85.51
2023-03-07T08:54:32.798Z,82.29
2023-03-07T08:57:35.383Z,83.43
2023-03-07T09:00:39.082Z,83.02
2023-03-07T09:03:42.916Z,81.60
2023-03-07T09:06:45.573Z,81.42
2023-03-07T09:09:48.138Z,82.15
2023-03-07T09:12:55.341Z,82.15
2023-03-07T09:15:57.811Z,83.60
2023-03-07T09:19:00.570Z,81.33
2023-03-07T09:22:03.552Z,81.93
2023-03-07T09:25:06.606Z,81.01
2023-03-07T09:28:09.206Z,81.56
2023-03-07T09:31:13.958Z,81.22
2023-03-07T09:34:16.621Z,79.25
2023-03-07T09:37:19.577Z,79.44
2023-03-07T09:40:23.914Z,79.79
2023-03-07T09:43:27.379Z,80.07
2023-03-07T09:47:22.757Z,80.82
2023-03-07T09:50:55.961Z,79.40
2023-03-07T09:54:15.396Z,80.02
2023-03-07T09:57:31.861Z,79.01
2023-03-07T10:00:38.304Z,76.29
2023-03-07T10:03:49.878Z,77.16
2023-03-07T10:06:58.564Z,78.52
2023-03-07T10:10:03.111Z,79.16
2023-03-07T10:13:37.545Z,77.20
2023-03-07T10:16:44.806Z,75.43
2023-03-07T10:19:52.618Z,74.42
2023-03-07T10:23:01.888Z,78.08
2023-03-07T10:26:16.089Z,78.98
2023-03-07T10:29:20.376Z,77.76
2023-03-07T10:32:42.034Z,76.41
2023-03-07T10:35:50.408Z,79.34
2023-03-07T10:39:07.242Z,81.54
2023-03-07T10:42:14.177Z,82.49
2023-03-07T10:45:17.534Z,81.87
2023-03-07T10:48:21.375Z,81.38
2023-03-07T10:52:01.443Z,80.07
2023-03-07T10:55:38.649Z,81.30
2023-03-07T10:59:05.951Z,81.16
2023-03-07T11:02:23.854Z,79.21
2023-03-07T11:05:34.062Z,79.72
2023-03-07T11:08:36.920Z,78.21
2023-03-07T11:11:39.801Z,77.75
2023-03-07T11:14:49.846Z,75.56
2023-03-07T11:17:53.048Z,77.38
2023-03-07T11:20:56.235Z,76.44
2023-03-07T11:24:17.526Z,76.92
2023-03-07T11:27:40.425Z,77.71
2023-03-07T11:30:48.038Z,77.86
2023-03-07T11:33:59.973Z,78.70
2023-03-07T11:37:38.334Z,79.14
2023-03-07T11:40:49.702Z,80.15
2023-03-07T11:44:13.119Z,82.22
2023-03-07T11:47:54.746Z,81.87
2023-03-07T11:50:57.929Z,81.77
2023-03-07T11:54:04.974Z,81.06
2023-03-07T11:57:19.357Z,81.30
2023-03-07T12:00:49.363Z,82.92
2023-03-07T12:04:20.285Z,79.91
2023-03-07T12:07:44.412Z,79.05
2023-03-07T12:11:10.378Z,78.72
2023-03-07T12:14:31.350Z,78.99
2023-03-07T12:17:53.008Z,78.82
2023-03-07T12:21:34.312Z,77.83
2023-03-07T12:24:55.964Z,79.50
2023-03-07T12:27:58.607Z,78.79
2023-03-07T12:31:04.236Z,78.36
2023-03-07T12:34:09.988Z,76.59
2023-03-07T12:37:24.198Z,77.50
2023-03-07T12:40:35.049Z,76.26
2023-03-07T12:43:51.921Z,76.72
2023-03-07T12:47:22.743Z,76.62
2023-03-07T12:50:29.142Z,75.70
2023-03-07T12:54:04.526Z,75.95
2023-03-07T12:57:21.367Z,76.98
2023-03-07T13:00:25.400Z,77.14
2023-03-07T13:03:41.363Z,77.32
2023-03-07T13:06:45.267Z,78.37
2023-03-07T13:09:49.623Z,78.84
2023-03-07T13:12:53.069Z,78.03
2023-03-07T13:16:07.043Z,79.44
2023-03-07T13:19:31.583Z,80.23
2023-03-07T13:22:37.297Z,79.65
2023-03-07T13:25:49.089Z,79.47
2023-03-07T13:28:52.512Z,79.35
2023-03-07T13:31:55.177Z,78.75
2023-03-07T13:34:57.925Z,78.90
2023-03-07T13:38:15.783Z,78.29
2023-03-07T13:41:45.531Z,78.61
2023-03-07T13:44:48.198Z,77.51
2023-03-07T13:47:50.948Z,77.57
2023-03-07T13:50:56.046Z,77.21
2023-03-07T13:54:16.960Z,76.66
2023-03-07T13:57:20.951Z,76.60
2023-03-07T14:00:32.454Z,76.35
2023-03-07T14:03:41.117Z,76.96
2023-03-07T14:06:50.567Z,76.18
2023-03-07T14:09:56.838Z,76.29
2023-03-07T14:13:21.538Z,74.86
2023-03-07T14:16:53.270Z,75.50
2023-03-07T14:20:17.865Z,75.31
2023-03-07T14:23:54.092Z,74.58
2023-03-07T14:26:58.531Z,74.33
2023-03-07T14:30:01.350Z,75.07
2023-03-07T14:33:04.168Z,74.55
2023-03-07T14:36:23.346Z,75.59
2023-03-07T14:39:33.645Z,76.13
2023-03-07T14:42:47.179Z,75.93
2023-03-07T14:45:59.825Z,76.01
2023-03-07T14:49:41.183Z,76.30
2023-03-07T14:52:44.908Z,75.87
2023-03-07T14:55:49.728Z,76.15
2023-03-07T14:58:58.678Z,75.93
2023-03-07T15:02:01.417Z,75.92
2023-03-07T15:05:04.952Z,75.19
2023-03-07T15:08:23.324Z,75.87
2023-03-07T15:11:28.789Z,76.19
2023-03-07T15:14:52.993Z,75.82
2023-03-07T15:18:06.421Z,76.36
2023-03-07T15:21:09.679Z,75.82
2023-03-07T15:24:31.703Z,75.98
2023-03-07T15:27:34.611Z,75.78
2023-03-07T15:30:38.584Z,75.72
2023-03-07T15:33:42.543Z,75.55
2023-03-07T15:36:45.617Z,75.25
2023-03-07T15:39:59.105Z,74.86
2023-03-07T15:43:04.889Z,75.49
2023-03-07T15:46:17.108Z,75.56
2023-03-07T15:49:22.824Z,75.07
2023-03-07T15:52:34.463Z,75.67
2023-03-07T15:55:38.790Z,75.62
2023-03-07T15:58:44.283Z,74.80
2023-03-07T16:01:47.408Z,75.34
2023-03-07T16:04:50.132Z,75.66
2023-03-07T16:07:57.677Z,75.67
2023-03-07T16:11:04.517Z,75.65
2023-03-07T16:14:30.401Z,75.70
2023-03-07T16:17:39.864Z,76.10
2023-03-07T16:20:42.678Z,76.08
2023-03-07T16:23:45.994Z,76.48
2023-03-07T16:26:49.031Z,76.22
2023-03-07T16:29:52.884Z,76.33
2023-03-07T16:32:55.995Z,76.52
2023-03-07T16:35:58.763Z,76.25
2023-03-07T16:39:01.537Z,76.54
2023-03-07T16:42:04.721Z,77.14
2023-03-07T16:45:32.755Z,76.52
2023-03-07T16:48:36.589Z,76.90
2023-03-07T16:51:40.099Z,76.88
2023-03-07T16:54:43.779Z,76.86
2023-03-07T16:57:51.010Z,76.82
2023-03-07T17:00:54.961Z,77.09
2023-03-07T17:04:05.737Z,77.00
2023-03-07T17:07:26.922Z,77.03
2023-03-07T17:10:29.938Z,76.76
2023-03-07T17:13:32.988Z,76.64
2023-03-07T17:16:39.551Z,77.13
2023-03-07T17:19:42.548Z,76.72
2023-03-07T17:22:45.562Z,76.63
2023-03-07T17:25:48.502Z,77.14
2023-03-07T17:28:51.612Z,77.71
2023-03-07T17:31:54.406Z,77.49
2023-03-07T17:34:57.300Z,78.08
2023-03-07T17:38:00.106Z,78.61
2023-03-07T17:41:02.968Z,78.67
2023-03-07T17:44:06.439Z,78.86
2023-03-07T17:47:09.348Z,78.84
2023-03-07T17:50:13.158Z,78.56
2023-03-07T17:53:16.219Z,77.95
2023-03-07T17:56:19.356Z,78.57
2023-03-07T17:59:22.535Z,78.06
2023-03-07T18:02:26.341Z,78.27
2023-03-07T18:05:29.757Z,78.31
2023-03-07T18:08:32.933Z,77.87
2023-03-07T18:11:37.338Z,78.37
2023-03-07T18:14:40.756Z,78.81
2023-03-07T18:17:49.093Z,78.20
2023-03-07T18:21:22.352Z,77.99
2023-03-07T18:24:27.424Z,77.87
2023-03-07T18:27:30.338Z,77.46
2023-03-07T18:30:34.482Z,77.08
2023-03-07T18:33:38.479Z,76.55
2023-03-07T18:36:42.220Z,76.43
2023-03-07T18:39:45.790Z,76.42
2023-03-07T18:42:49.640Z,76.44
2023-03-07T18:45:53.880Z,76.50
2023-03-07T18:48:57.773Z,76.57
2023-03-07T18:52:00.556Z,76.74
2023-03-07T18:55:03.618Z,76.89
2023-03-07T18:58:06.310Z,77.72
2023-03-07T19:01:21.143Z,78.15
2023-03-07T19:04:23.982Z,78.15
2023-03-07T19:07:28.960Z,77.93
2023-03-07T19:10:32.109Z,78.24
2023-03-07T19:13:35.572Z,78.37
2023-03-07T19:16:38.656Z,78.43
2023-03-07T19:19:41.697Z,78.52
2023-03-07T19:22:44.980Z,78.13
2023-03-07T19:25:48.850Z,79.15
2023-03-07T19:28:53.528Z,78.54
2023-03-07T19:31:56.687Z,78.72
2023-03-07T19:34:59.635Z,80.05
2023-03-07T19:38:02.546Z,80.61
2023-03-07T19:41:07.330Z,80.23
2023-03-07T19:44:12.508Z,79.91
2023-03-07T19:47:15.368Z,79.50
2023-03-07T19:50:19.025Z,78.78
2023-03-07T19:53:24.475Z,79.92
2023-03-07T19:56:30.750Z,80.33
2023-03-07T19:59:33.592Z,80.57
2023-03-07T20:02:38.313Z,80.30
2023-03-07T20:05:43.139Z,80.63
2023-03-07T20:08:48.583Z,79.58
2023-03-07T20:11:51.329Z,81.18
2023-03-07T20:14:54.179Z,81.74
2023-03-07T20:17:57.540Z,81.00
2023-03-07T20:21:05.760Z,81.90
2023-03-07T20:24:09.114Z,81.39
2023-03-07T20:27:11.896Z,82.05
2023-03-07T20:30:15.554Z,83.32
2023-03-07T20:33:18.365Z,84.85
2023-03-07T20:36:26.678Z,84.71
2023-03-07T20:39:29.706Z,86.65
2023-03-07T20:42:32.920Z,88.22
2023-03-07T20:45:35.789Z,90.22
2023-03-07T20:48:39.120Z,91.32
2023-03-07T20:51:42.445Z,91.87
2023-03-07T20:54:45.707Z,93.16
2023-03-07T20:57:48.740Z,92.43
2023-03-07T21:00:53.250Z,93.12
2023-03-07T21:03:56.651Z,94.58
2023-03-07T21:06:59.526Z,97.51
2023-03-07T21:10:02.246Z,98.55
2023-03-07T21:13:05.099Z,99.22
2023-03-07T21:16:19.832Z,99.45
2023-03-07T21:19:22.539Z,99.77
2023-03-07T21:22:25.244Z,97.54
2023-03-07T21:25:28.033Z,98.67
2023-03-07T21:28:35.277Z,95.77
2023-03-07T21:31:39.027Z,97.64
2023-03-07T21:34:41.711Z,97.03
2023-03-07T21:37:44.422Z,97.16
2023-03-07T21:40:47.474Z,97.95
2023-03-07T21:43:50.168Z,98.61
2023-03-07T21:46:53.085Z,99.26
2023-03-07T21:49:56.139Z,100.00
2023-03-07T21:52:58.977Z,100.00
2023-03-07T21:56:28.264Z,100.00
2023-03-07T21:59:33.659Z,100.00
2023-03-07T22:02:37.377Z,100.00
2023-03-07T22:05:40.605Z,100.00
2023-03-07T22:08:43.216Z,100.00
2023-03-07T22:11:45.862Z,100.00
2023-03-07T22:14:48.790Z,99.76
2023-03-07T22:17:51.525Z,100.00
2023-03-07T22:20:55.401Z,96.97
2023-03-07T22:24:00.127Z,96.06
2023-03-07T22:27:02.915Z,98.42
2023-03-07T22:30:06.804Z,98.74
2023-03-07T22:33:09.532Z,99.85
2023-03-07T22:36:13.659Z,100.00
2023-03-07T22:39:16.281Z,100.00
2023-03-07T22:42:18.950Z,100.00
2023-03-07T22:45:21.654Z,100.00
2023-03-07T22:48:24.421Z,100.00
2023-03-07T22:51:27.274Z,100.00
2023-03-07T22:54:30.019Z,100.00
2023-03-07T22:57:32.698Z,100.00
2023-03-07T23:00:35.416Z,100.00
2023-03-07T23:03:38.099Z,100.00
2023-03-07T23:06:40.778Z,100.00
2023-03-07T23:09:43.433Z,100.00
2023-03-07T23:12:49.935Z,100.00
2023-03-07T23:15:52.567Z,100.00
2023-03-07T23:18:57.105Z,100.00
2023-03-07T23:21:59.704Z,100.00
2023-03-07T23:25:02.365Z,100.00
2023-03-07T23:28:05.066Z,100.00
2023-03-07T23:31:16.695Z,100.00
2023-03-07T23:34:20.625Z,100.00
2023-03-07T23:37:23.176Z,100.00
2023-03-07T23:40:25.805Z,100.00
2023-03-07T23:43:28.535Z,100.00
2023-03-07T23:46:32.131Z,100.00
2023-03-07T23:49:34.789Z,100.00
2023-03-07T23:52:37.396Z,100.00
2023-03-07T23:55:43.325Z,100.00
2023-03-07T23:58:50.006Z,100.00
